Time;durP1;ratioP1;P1;durP2;ratioP2;P2;SDS_P1;SDS_P2;PMS_P1;PMS_P2;Temp;Humidity;BMP_temperature;BMP_pressure;BME280_temperature;BME280_humidity;BME280_pressure;Samples;Min_cycle;Max_cycle;Signal;HPM_P1;HPM_P2
2021/11/24 00:09:09;;;;;;;11.23;7.93;;;;;;;;;;21078034;28;20059;-62
2021/11/24 00:19:12;;;;;;;22.95;17.40;;;;;;;;;;21078092;28;20519;-61
2021/11/24 00:29:14;;;;;;;9.30;7.28;;;;;;;;;;21079571;28;20055;-61
2021/11/24 00:39:16;;;;;;;12.15;8.65;;;;;;;;;;21094437;28;20135;-61
2021/11/24 00:49:18;;;;;;;11.50;9.05;;;;;;;;;;21093341;28;20063;-62
2021/11/24 00:59:21;;;;;;;9.70;7.65;;;;;;;;;;21092488;28;20135;-60
2021/11/24 01:09:23;;;;;;;9.35;7.32;;;;;;;;;;21091488;28;20403;-61
2021/11/24 01:19:25;;;;;;;12.77;7.78;;;;;;;;;;21092340;28;20079;-60
2021/11/24 01:29:27;;;;;;;9.50;7.78;;;;;;;;;;21089463;28;20055;-61
2021/11/24 01:39:29;;;;;;;10.30;7.45;;;;;;;;;;21087748;28;20048;-61
2021/11/24 01:49:33;;;;;;;10.18;7.43;;;;;;;;;;21086388;28;20052;-63
2021/11/24 01:59:35;;;;;;;11.40;7.80;;;;;;;;;;21087142;28;20507;-62
2021/11/24 02:09:37;;;;;;;10.30;7.40;;;;;;;;;;21086206;28;20055;-62
2021/11/24 02:19:43;;;;;;;8.50;6.40;;;;;;;;;;21085803;28;20185;-61
2021/11/24 02:29:47;;;;;;;9.67;6.27;;;;;;;;;;21084319;28;20046;-61
2021/11/24 02:39:50;;;;;;;11.77;7.07;;;;;;;;;;21084589;28;20349;-61
2021/11/24 02:49:55;;;;;;;8.63;5.73;;;;;;;;;;21083246;28;20123;-64
2021/11/24 02:59:59;;;;;;;7.55;6.25;;;;;;;;;;21081899;28;20055;-69
2021/11/24 03:10:01;;;;;;;8.85;6.25;;;;;;;;;;21082137;28;20056;-71
2021/11/24 03:20:06;;;;;;;7.30;5.70;;;;;;;;;;21082641;28;20051;-70
2021/11/24 03:30:13;;;;;;;6.82;5.82;;;;;;;;;;21080217;28;20063;-70
2021/11/24 03:40:16;;;;;;;7.90;4.90;;;;;;;;;;21084659;28;20035;-61
2021/11/24 03:50:20;;;;;;;18.83;5.07;;;;;;;;;;21081163;28;20048;-61
2021/11/24 04:00:27;;;;;;;5.53;4.30;;;;;;;;;;21060119;28;20083;-61
2021/11/24 04:10:30;;;;;;;7.82;5.00;;;;;;;;;;21078095;28;20040;-61
2021/11/24 04:20:34;;;;;;;6.35;4.20;;;;;;;;;;21077572;28;20047;-60
2021/11/24 04:30:38;;;;;;;6.38;4.97;;;;;;;;;;21077184;28;20054;-60
2021/11/24 04:40:40;;;;;;;7.40;5.13;;;;;;;;;;21077738;28;20051;-62
2021/11/24 04:50:48;;;;;;;6.97;5.20;;;;;;;;;;21076611;28;20416;-61
2021/11/24 05:00:50;;;;;;;6.68;5.38;;;;;;;;;;21076779;28;20074;-60
2021/11/24 05:10:52;;;;;;;8.07;5.85;;;;;;;;;;21076668;28;20492;-61
2021/11/24 05:21:02;;;;;;;8.02;6.40;;;;;;;;;;21086005;28;20051;-60
2021/11/24 05:31:05;;;;;;;6.93;5.35;;;;;;;;;;21090648;28;20047;-61
2021/11/24 05:41:08;;;;;;;10.43;7.00;;;;;;;;;;21089163;28;20044;-61
2021/11/24 05:51:11;;;;;;;9.32;6.93;;;;;;;;;;21087813;28;20094;-61
2021/11/24 06:01:13;;;;;;;10.07;6.93;;;;;;;;;;21086929;28;20056;-61
2021/11/24 06:11:16;;;;;;;9.05;7.03;;;;;;;;;;21086422;28;20098;-61
2021/11/24 06:21:22;;;;;;;9.10;7.20;;;;;;;;;;21085480;28;20097;-61
2021/11/24 06:31:26;;;;;;;17.23;12.73;;;;;;;;;;21084274;28;20044;-60
2021/11/24 06:41:29;;;;;;;21.77;14.40;;;;;;;;;;21067253;28;20113;-60
2021/11/24 06:51:32;;;;;;;10.93;8.60;;;;;;;;;;21082921;28;20087;-60
2021/11/24 07:01:35;;;;;;;12.20;8.75;;;;;;;;;;21082656;28;20055;-60
2021/11/24 07:11:38;;;;;;;13.98;10.48;;;;;;;;;;21081963;28;20090;-61
2021/11/24 07:21:47;;;;;;;13.90;9.57;;;;;;;;;;21080435;28;20060;-60
2021/11/24 07:31:49;;;;;;;26.75;10.77;;;;;;;;;;21079807;28;20071;-60
2021/11/24 07:41:51;;;;;;;18.60;11.02;;;;;;;;;;21079678;28;20407;-59
2021/11/24 07:51:54;;;;;;;33.88;18.48;;;;;;;;;;21078691;28;20129;-60
2021/11/24 08:01:58;;;;;;;12.18;9.43;;;;;;;;;;21077551;28;20058;-60
2021/11/24 08:12:02;;;;;;;13.30;9.18;;;;;;;;;;21078518;28;20075;-61
2021/11/24 08:22:06;;;;;;;18.90;10.52;;;;;;;;;;21077476;28;20412;-60
2021/11/24 08:32:11;;;;;;;25.23;11.07;;;;;;;;;;21076554;28;20048;-62
2021/11/24 08:42:14;;;;;;;16.52;9.88;;;;;;;;;;21076765;28;20048;-61
2021/11/24 08:52:17;;;;;;;15.75;9.27;;;;;;;;;;21081538;28;20044;-60
2021/11/24 09:02:20;;;;;;;16.90;10.27;;;;;;;;;;21091531;28;20082;-60
2021/11/24 09:12:23;;;;;;;12.23;7.97;;;;;;;;;;21090839;28;20123;-60
2021/11/24 09:22:25;;;;;;;13.63;7.32;;;;;;;;;;21091114;28;20210;-60
2021/11/24 09:32:29;;;;;;;15.18;7.35;;;;;;;;;;21089678;28;20044;-60
2021/11/24 09:42:34;;;;;;;15.27;7.75;;;;;;;;;;21088948;28;20064;-60
2021/11/24 09:52:43;;;;;;;10.82;6.97;;;;;;;;;;21088842;28;20052;-62
2021/11/24 10:02:45;;;;;;;9.55;6.57;;;;;;;;;;21086794;28;20060;-60
2021/11/24 10:12:51;;;;;;;;;;;;;;;;;;21087739;28;20075;-60
2021/11/24 10:22:54;;;;;;;13.70;7.38;;;;;;;;;;21086116;28;19989;-65
2021/11/24 10:33:19;;;;;;;12.20;8.20;;;;;;;;;;21084330;28;20087;-67
2021/11/24 10:43:23;;;;;;;15.93;9.00;;;;;;;;;;21083824;28;20071;-61
2021/11/24 10:53:27;;;;;;;16.80;10.18;;;;;;;;;;21083474;28;20476;-63
2021/11/24 11:03:34;;;;;;;10.05;7.07;;;;;;;;;;21081473;28;20066;-57
2021/11/24 11:13:36;;;;;;;13.55;8.57;;;;;;;;;;21102982;28;20047;-60
2021/11/24 11:23:43;;;;;;;7.63;5.63;;;;;;;;;;21118634;28;20050;-60
2021/11/24 11:33:47;;;;;;;;;;;;;;;;;;21100923;28;20127;-60
2021/11/24 11:43:51;;;;;;;7.70;3.22;;;;;;;;;;21080551;28;19960;-61
2021/11/24 11:53:54;;;;;;;10.68;4.35;;;;;;;;;;21079669;28;20393;-62
2021/11/24 12:03:58;;;;;;;8.32;3.45;;;;;;;;;;21077717;28;20051;-61
2021/11/24 12:14:02;;;;;;;16.90;5.50;;;;;;;;;;21078109;28;20051;-61
2021/11/24 12:24:08;;;;;;;3.67;2.00;;;;;;;;;;21078367;28;20131;-61
2021/11/24 12:34:14;;;;;;;11.05;5.38;;;;;;;;;;21094429;28;20047;-60
2021/11/24 12:44:18;;;;;;;4.65;2.35;;;;;;;;;;21077009;28;20472;-61
2021/11/24 12:54:25;;;;;;;4.90;2.70;;;;;;;;;;21093445;28;20123;-60
2021/11/24 13:04:39;;;;;;;6.13;3.63;;;;;;;;;;21092121;28;20088;-61
2021/11/24 13:14:46;;;;;;;5.32;2.05;;;;;;;;;;21091856;28;20135;-61
2021/11/24 13:25:00;;;;;;;6.18;2.28;;;;;;;;;;21090697;28;20048;-61
2021/11/24 13:35:03;;;;;;;3.35;1.60;;;;;;;;;;21088756;28;20052;-59
2021/11/24 13:45:12;;;;;;;6.90;1.88;;;;;;;;;;21089148;28;20080;-59
2021/11/24 13:55:17;;;;;;;3.38;1.90;;;;;;;;;;21088020;28;20048;-60
2021/11/24 14:05:20;;;;;;;4.53;2.80;;;;;;;;;;21087227;28;20551;-61
2021/11/24 14:15:24;;;;;;;6.32;2.75;;;;;;;;;;21068536;28;20538;-61
2021/11/24 14:25:31;;;;;;;20.15;5.28;;;;;;;;;;21085844;28;20407;-64
2021/11/24 14:35:34;;;;;;;4.95;3.00;;;;;;;;;;21084298;28;20390;-62
2021/11/24 14:45:37;;;;;;;5.70;3.80;;;;;;;;;;21084136;28;20139;-63
2021/11/24 14:55:39;;;;;;;4.10;2.58;;;;;;;;;;21082701;28;20048;-65
2021/11/24 15:05:41;;;;;;;6.25;3.30;;;;;;;;;;21064711;28;20059;-60
2021/11/24 15:15:44;;;;;;;6.63;4.50;;;;;;;;;;21081555;28;20093;-60
2021/11/24 15:25:47;;;;;;;5.68;3.90;;;;;;;;;;21080672;28;20472;-63
2021/11/24 15:35:52;;;;;;;8.13;4.88;;;;;;;;;;21080848;28;20123;-62
2021/11/24 15:45:56;;;;;;;13.20;6.70;;;;;;;;;;21080075;28;20135;-61
2021/11/24 15:55:59;;;;;;;9.93;4.28;;;;;;;;;;21079618;28;20048;-61
2021/11/24 16:06:02;;;;;;;7.60;4.22;;;;;;;;;;21078400;28;20063;-60
2021/11/24 16:16:05;;;;;;;9.48;4.88;;;;;;;;;;21060042;28;20052;-62
2021/11/24 16:26:09;;;;;;;8.18;3.90;;;;;;;;;;21078656;28;20407;-64
2021/11/24 16:36:12;;;;;;;6.88;3.40;;;;;;;;;;21076969;28;20593;-62
2021/11/24 16:46:13;;;;;;;9.85;3.55;;;;;;;;;;21057560;28;20056;-61
2021/11/24 16:56:16;;;;;;;4.50;3.17;;;;;;;;;;21076322;28;20044;-61
2021/11/24 17:06:17;;;;;;;4.25;2.78;;;;;;;;;;21076141;28;20052;-60
2021/11/24 17:16:19;;;;;;;8.60;4.90;;;;;;;;;;21085830;28;20048;-61
2021/11/24 17:26:20;;;;;;;8.18;3.72;;;;;;;;;;21090852;28;20443;-61
2021/11/24 17:36:21;;;;;;;5.22;3.08;;;;;;;;;;21092362;28;20134;-57
2021/11/24 17:46:24;;;;;;;6.80;3.63;;;;;;;;;;21173169;28;20052;-57
2021/11/24 17:56:28;;;;;;;3.60;2.78;;;;;;;;;;21169537;28;20040;-57
2021/11/24 18:06:31;;;;;;;4.45;2.60;;;;;;;;;;21170795;28;20154;-63
2021/11/24 18:16:33;;;;;;;6.00;3.08;;;;;;;;;;21170999;28;20043;-56
2021/11/24 18:26:36;;;;;;;7.28;4.07;;;;;;;;;;21168471;28;20172;-56
2021/11/24 18:36:39;;;;;;;4.57;3.70;;;;;;;;;;21169914;28;20061;-61
2021/11/24 18:46:41;;;;;;;7.60;3.72;;;;;;;;;;21168965;28;20472;-56
2021/11/24 18:56:44;;;;;;;24.55;14.60;;;;;;;;;;21168870;28;20062;-55
2021/11/24 19:06:52;;;;;;;5.47;4.25;;;;;;;;;;21166051;28;20059;-59
2021/11/24 19:16:54;;;;;;;9.38;5.60;;;;;;;;;;21166197;28;20118;-57
2021/11/24 19:26:56;;;;;;;7.10;4.45;;;;;;;;;;21165396;28;20441;-57
2021/11/24 19:36:59;;;;;;;7.75;4.78;;;;;;;;;;21163798;28;20043;-58
2021/11/24 19:47:07;;;;;;;10.27;4.97;;;;;;;;;;21164688;28;20051;-58
2021/11/24 19:57:09;;;;;;;6.78;3.20;;;;;;;;;;21164207;28;20051;-57
2021/11/24 20:07:12;;;;;;;8.00;4.47;;;;;;;;;;21145949;28;20059;-58
2021/11/24 20:17:15;;;;;;;7.88;3.33;;;;;;;;;;21144621;28;20047;-55
2021/11/24 20:27:19;;;;;;;4.32;3.00;;;;;;;;;;21162087;28;20048;-58
2021/11/24 20:37:22;;;;;;;10.75;8.00;;;;;;;;;;21163801;28;20408;-57
2021/11/24 20:47:24;;;;;;;8.40;4.93;;;;;;;;;;21147846;28;20051;-57
2021/11/24 20:57:27;;;;;;;10.23;5.22;;;;;;;;;;21177224;28;20055;-59
2021/11/24 21:07:30;;;;;;;7.68;5.28;;;;;;;;;;21160062;28;20075;-57
2021/11/24 21:17:32;;;;;;;7.35;4.43;;;;;;;;;;21177337;28;20082;-58
2021/11/24 21:27:34;;;;;;;9.68;5.28;;;;;;;;;;21176865;28;20052;-58
2021/11/24 21:37:38;;;;;;;8.95;5.18;;;;;;;;;;21175867;28;20044;-57
2021/11/24 21:47:40;;;;;;;4.78;3.40;;;;;;;;;;21175323;28;20074;-57
2021/11/24 21:57:42;;;;;;;11.93;7.03;;;;;;;;;;21173644;28;20138;-58
2021/11/24 22:11:33;;;;;;;10.15;5.20;;;;;;;;;;21173833;28;20048;-58
2021/11/24 22:18:08;;;;;;;11.45;5.10;;;;;;;;;;21172896;28;20499;-57
2021/11/24 22:28:10;;;;;;;9.75;6.78;;;;;;;;;;21170670;28;20093;-57
2021/11/24 22:38:13;;;;;;;8.25;4.80;;;;;;;;;;21170001;28;20056;-59
2021/11/24 22:48:15;;;;;;;8.98;5.07;;;;;;;;;;21169335;28;20055;-57
2021/11/24 22:58:17;;;;;;;7.18;4.65;;;;;;;;;;21167880;28;20079;-57
2021/11/24 23:08:19;;;;;;;8.88;5.05;;;;;;;;;;21167309;28;20043;-56
2021/11/24 23:18:21;;;;;;;6.28;3.90;;;;;;;;;;21166853;28;20051;-57
2021/11/24 23:28:25;;;;;;;6.68;4.50;;;;;;;;;;21165444;28;20047;-57
2021/11/24 23:38:27;;;;;;;7.20;4.80;;;;;;;;;;21164628;28;20052;-57
2021/11/24 23:48:29;;;;;;;7.68;4.70;;;;;;;;;;21164292;28;20128;-57
2021/11/24 23:58:31;;;;;;;8.52;5.75;;;;;;;;;;21163126;28;20047;-57
